Time;durP1;ratioP1;P1;durP2;ratioP2;P2;SDS_P1;SDS_P2;PMS_P1;PMS_P2;Temp;Humidity;BMP_temperature;BMP_pressure;BME280_temperature;BME280_humidity;BME280_pressure;Samples;Min_cycle;Max_cycle;Signal;HPM_P1;HPM_P2
2021/04/07 12:58:37;;;;;;;4.72;1.85;;;;;;;;;;5109549;27;20573;-77
2021/04/07 13:01:03;;;;;;;5.90;1.45;;;;;;;;;;5104232;28;20024;-77
2021/04/07 13:03:29;;;;;;;6.82;1.40;;;;;;;;;;5071538;28;20503;-77
2021/04/07 13:05:55;;;;;;;4.93;1.33;;;;;;;;;;5089503;28;20020;-78
2021/04/07 13:08:21;;;;;;;2.25;1.00;;;;;;;;;;5071576;28;20025;-77
2021/04/07 13:10:47;;;;;;;2.33;1.20;;;;;;;;;;5087470;28;20101;-78
2021/04/07 13:13:13;;;;;;;7.60;1.85;;;;;;;;;;5090121;28;20481;-78
2021/04/07 13:15:39;;;;;;;6.13;2.40;;;;;;;;;;5090243;28;20520;-78
2021/04/07 13:18:06;;;;;;;6.22;1.80;;;;;;;;;;5089386;28;20032;-78
2021/04/07 13:20:33;;;;;;;3.33;1.50;;;;;;;;;;5091782;28;20498;-79
2021/04/07 13:22:59;;;;;;;4.60;1.73;;;;;;;;;;5089779;28;20028;-78
2021/04/07 13:25:25;;;;;;;6.07;2.33;;;;;;;;;;5090849;28;20040;-79
2021/04/07 13:27:52;;;;;;;6.63;1.88;;;;;;;;;;5091969;28;20048;-78
2021/04/07 13:30:19;;;;;;;6.70;2.17;;;;;;;;;;5090750;28;20056;-79
2021/04/07 13:32:51;;;;;;;5.43;1.52;;;;;;;;;;5099506;28;20027;-78
2021/04/07 13:35:26;;;;;;;4.40;1.52;;;;;;;;;;5096114;28;20084;-79
2021/04/07 13:40:32;;;;;;;3.50;1.58;;;;;;;;;;5091441;28;20033;-79
2021/04/07 13:42:58;;;;;;;6.43;1.75;;;;;;;;;;5094064;28;20515;-79
2021/04/07 13:45:29;;;;;;;4.53;1.70;;;;;;;;;;5093349;28;20481;-80
2021/04/07 13:47:58;;;;;;;4.15;1.20;;;;;;;;;;5093506;28;20024;-81
2021/04/07 13:50:24;;;;;;;3.28;1.30;;;;;;;;;;5101315;28;20043;-79
2021/04/07 13:52:52;;;;;;;6.07;1.50;;;;;;;;;;5114005;28;20024;-80
2021/04/07 13:55:19;;;;;;;3.42;1.77;;;;;;;;;;5112462;28;20023;-80
2021/04/07 13:57:45;;;;;;;5.43;1.77;;;;;;;;;;5114507;28;20055;-79
2021/04/07 14:00:12;;;;;;;4.78;1.95;;;;;;;;;;5095174;28;20023;-79
2021/04/07 14:02:38;;;;;;;8.98;2.05;;;;;;;;;;5095853;28;20095;-79
2021/04/07 14:05:05;;;;;;;11.60;2.00;;;;;;;;;;5112548;28;20020;-80
2021/04/07 14:07:31;;;;;;;6.28;1.42;;;;;;;;;;5113064;28;20030;-81
2021/04/07 14:09:57;;;;;;;7.57;1.80;;;;;;;;;;5098869;28;20060;-80
2021/04/07 14:12:34;;;;;;;7.15;2.30;;;;;;;;;;5095042;28;20509;-80
2021/04/07 14:15:00;;;;;;;5.90;2.03;;;;;;;;;;5080391;28;20035;-80
2021/04/07 14:17:26;;;;;;;2.63;1.65;;;;;;;;;;5092704;28;20040;-79
2021/04/07 14:19:52;;;;;;;7.50;2.25;;;;;;;;;;5073412;28;20032;-79
2021/04/07 14:22:18;;;;;;;6.72;2.00;;;;;;;;;;5071187;28;20039;-79
2021/04/07 14:24:44;;;;;;;5.72;1.77;;;;;;;;;;5085207;28;20020;-78
2021/04/07 14:27:13;;;;;;;6.65;2.00;;;;;;;;;;5076840;28;20025;-78
2021/04/07 14:29:39;;;;;;;5.63;1.83;;;;;;;;;;5076907;28;20029;-78
2021/04/07 14:32:05;;;;;;;6.55;2.30;;;;;;;;;;5075708;28;20064;-78
2021/04/07 14:34:31;;;;;;;10.43;2.65;;;;;;;;;;5075059;28;20102;-77
2021/04/07 14:36:57;;;;;;;5.75;2.63;;;;;;;;;;5074146;28;20060;-78
2021/04/07 14:39:23;;;;;;;5.57;2.83;;;;;;;;;;5074498;28;20474;-77
2021/04/07 14:41:49;;;;;;;7.53;3.38;;;;;;;;;;5072989;28;20078;-77
2021/04/07 14:44:15;;;;;;;7.93;3.35;;;;;;;;;;5073805;28;20111;-77
2021/04/07 14:46:41;;;;;;;7.57;3.65;;;;;;;;;;5074037;28;20036;-77
2021/04/07 14:49:07;;;;;;;7.75;3.90;;;;;;;;;;5074515;28;20031;-77
2021/04/07 14:51:40;;;;;;;10.00;3.85;;;;;;;;;;5074043;28;20108;-78
2021/04/07 14:54:18;;;;;;;10.13;3.10;;;;;;;;;;5069967;28;20025;-78
2021/04/07 14:56:45;;;;;;;5.75;3.58;;;;;;;;;;5073468;28;20060;-79
2021/04/07 14:59:11;;;;;;;11.60;4.28;;;;;;;;;;5073082;28;20025;-77
2021/04/07 15:01:37;;;;;;;7.90;4.28;;;;;;;;;;5072475;28;20028;-77
2021/04/07 15:04:04;;;;;;;9.20;4.13;;;;;;;;;;5075206;28;20107;-78
2021/04/07 15:06:30;;;;;;;7.97;4.82;;;;;;;;;;5071479;28;20029;-75
2021/04/07 15:08:56;;;;;;;5.50;3.90;;;;;;;;;;5072299;28;20104;-76
2021/04/07 15:11:22;;;;;;;8.68;4.25;;;;;;;;;;5071655;28;20028;-76
2021/04/07 15:13:48;;;;;;;6.65;3.22;;;;;;;;;;5071525;28;20051;-76
2021/04/07 15:16:14;;;;;;;8.68;4.85;;;;;;;;;;5072601;28;20101;-76
2021/04/07 15:18:40;;;;;;;7.45;4.13;;;;;;;;;;5071482;28;20388;-76
2021/04/07 15:21:10;;;;;;;5.03;3.38;;;;;;;;;;5069142;28;20024;-76
2021/04/07 15:23:36;;;;;;;13.38;5.25;;;;;;;;;;5072360;28;20029;-76
2021/04/07 15:28:36;;;;;;;16.02;5.22;;;;;;;;;;5072415;28;20082;-75
2021/04/07 15:31:07;;;;;;;9.73;4.03;;;;;;;;;;5071738;28;20056;-76
2021/04/07 15:33:33;;;;;;;14.65;6.28;;;;;;;;;;5072587;28;20649;-76
2021/04/07 15:36:00;;;;;;;7.75;4.47;;;;;;;;;;5072361;28;20047;-76
2021/04/07 15:38:27;;;;;;;7.05;4.72;;;;;;;;;;5071918;28;20036;-76
2021/04/07 15:40:53;;;;;;;8.45;4.40;;;;;;;;;;5070303;28;20020;-76
2021/04/07 15:43:19;;;;;;;11.32;4.22;;;;;;;;;;5070962;28;20127;-76
2021/04/07 15:45:45;;;;;;;8.50;4.63;;;;;;;;;;5072168;28;20025;-76
2021/04/07 15:48:11;;;;;;;8.52;4.55;;;;;;;;;;5071940;28;20392;-76
2021/04/07 15:50:37;;;;;;;5.40;3.90;;;;;;;;;;5071453;28;20512;-76
2021/04/07 15:53:11;;;;;;;11.25;4.90;;;;;;;;;;5071753;28;20099;-76
2021/04/07 15:55:38;;;;;;;8.52;4.72;;;;;;;;;;5072072;28;20020;-76
2021/04/07 15:58:04;;;;;;;12.10;5.72;;;;;;;;;;5071830;28;20440;-76
2021/04/07 16:00:30;;;;;;;8.00;4.50;;;;;;;;;;5070023;28;20091;-76
2021/04/07 16:02:56;;;;;;;7.72;3.63;;;;;;;;;;5071932;28;20033;-76
2021/04/07 16:05:22;;;;;;;8.63;5.03;;;;;;;;;;5071683;28;20074;-76
2021/04/07 16:07:48;;;;;;;13.30;4.90;;;;;;;;;;5069815;28;20119;-76
2021/04/07 16:10:14;;;;;;;10.98;4.50;;;;;;;;;;5071124;28;20031;-76
2021/04/07 16:12:40;;;;;;;10.80;5.18;;;;;;;;;;5071610;28;20563;-76
2021/04/07 16:15:06;;;;;;;8.40;4.20;;;;;;;;;;5071621;28;20560;-76
2021/04/07 16:17:32;;;;;;;8.70;4.03;;;;;;;;;;5071590;28;20112;-76
2021/04/07 16:19:58;;;;;;;6.35;3.00;;;;;;;;;;5069429;28;20111;-76
2021/04/07 16:22:24;;;;;;;8.20;3.40;;;;;;;;;;5071111;28;20680;-75
2021/04/07 16:24:50;;;;;;;5.03;2.90;;;;;;;;;;5071442;28;20016;-76
2021/04/07 16:27:16;;;;;;;5.05;3.42;;;;;;;;;;5071122;28;20024;-75
2021/04/07 16:29:43;;;;;;;5.68;3.08;;;;;;;;;;5091563;28;20055;-75
2021/04/07 16:32:10;;;;;;;7.28;3.20;;;;;;;;;;5082687;28;20024;-75
2021/04/07 16:34:37;;;;;;;9.73;3.38;;;;;;;;;;5073008;28;20025;-75
2021/04/07 16:37:03;;;;;;;4.82;2.95;;;;;;;;;;5071083;28;20029;-75
2021/04/07 16:39:29;;;;;;;8.32;3.22;;;;;;;;;;5070827;28;20028;-75
2021/04/07 16:41:55;;;;;;;7.65;3.55;;;;;;;;;;5071113;28;20032;-75
2021/04/07 16:44:21;;;;;;;5.30;2.60;;;;;;;;;;5071433;28;20024;-76
2021/04/07 16:46:47;;;;;;;5.03;2.35;;;;;;;;;;5071837;28;20399;-75
2021/04/07 16:49:14;;;;;;;8.05;3.00;;;;;;;;;;5071333;28;20078;-76
2021/04/07 16:51:41;;;;;;;6.50;2.55;;;;;;;;;;5071330;28;20040;-76
2021/04/07 16:54:07;;;;;;;6.80;3.00;;;;;;;;;;5071406;28;20028;-76
2021/04/07 16:56:33;;;;;;;4.07;2.17;;;;;;;;;;5071337;28;20737;-76
2021/04/07 16:58:59;;;;;;;9.38;2.38;;;;;;;;;;5070962;28;20045;-73
2021/04/07 17:01:25;;;;;;;7.30;2.78;;;;;;;;;;5070478;28;20463;-75
2021/04/07 17:03:52;;;;;;;7.45;2.97;;;;;;;;;;5070964;28;20103;-75
2021/04/07 17:06:18;;;;;;;7.40;2.42;;;;;;;;;;5070839;28;20028;-75
2021/04/07 17:08:44;;;;;;;5.30;2.65;;;;;;;;;;5070906;28;20099;-74
2021/04/07 17:11:10;;;;;;;6.93;3.45;;;;;;;;;;5070587;28;20100;-76
2021/04/07 17:13:36;;;;;;;3.17;2.00;;;;;;;;;;5071065;28;20024;-74
2021/04/07 17:16:02;;;;;;;4.00;2.35;;;;;;;;;;5069514;28;20504;-76
2021/04/07 17:18:28;;;;;;;8.35;3.83;;;;;;;;;;5069537;28;20108;-75
2021/04/07 17:20:55;;;;;;;7.10;2.25;;;;;;;;;;5085033;28;20016;-76
2021/04/07 17:23:21;;;;;;;7.00;2.33;;;;;;;;;;5091599;28;20016;-78
2021/04/07 17:25:47;;;;;;;6.65;2.20;;;;;;;;;;5095233;28;20020;-77
2021/04/07 17:28:13;;;;;;;5.85;2.08;;;;;;;;;;5088782;28;20024;-78
2021/04/07 17:30:42;;;;;;;7.82;2.25;;;;;;;;;;5077665;28;20037;-76
2021/04/07 17:33:09;;;;;;;5.93;2.13;;;;;;;;;;5083902;28;20052;-80
2021/04/07 17:35:35;;;;;;;5.35;2.25;;;;;;;;;;5068257;28;20039;-79
2021/04/07 17:38:01;;;;;;;7.07;2.08;;;;;;;;;;5061140;28;20092;-81
2021/04/07 17:40:27;;;;;;;9.70;2.72;;;;;;;;;;5071305;28;20028;-75
2021/04/07 17:42:58;;;;;;;9.70;2.83;;;;;;;;;;5073573;28;20074;-77
2021/04/07 17:45:25;;;;;;;3.92;2.15;;;;;;;;;;5074670;28;20020;-75
2021/04/07 17:47:51;;;;;;;8.70;2.65;;;;;;;;;;5079463;28;20025;-79
2021/04/07 17:50:17;;;;;;;5.28;2.08;;;;;;;;;;5078128;28;20028;-79
2021/04/07 17:52:43;;;;;;;6.78;2.80;;;;;;;;;;5071294;28;20509;-78
2021/04/07 17:55:09;;;;;;;7.20;2.55;;;;;;;;;;5095316;28;20401;-78
2021/04/07 17:57:35;;;;;;;5.18;1.90;;;;;;;;;;5091906;28;20101;-77
2021/04/07 18:00:01;;;;;;;7.15;2.30;;;;;;;;;;5090308;28;20592;-78
2021/04/07 18:02:27;;;;;;;4.85;2.47;;;;;;;;;;5079799;28;20429;-80
2021/04/07 18:04:53;;;;;;;7.65;2.47;;;;;;;;;;5081811;28;20028;-79
2021/04/07 18:07:19;;;;;;;4.00;2.08;;;;;;;;;;5079244;28;20036;-77
2021/04/07 18:09:45;;;;;;;3.40;1.48;;;;;;;;;;5083067;28;20032;-79
2021/04/07 18:12:11;;;;;;;5.95;2.10;;;;;;;;;;5078582;28;20043;-80
2021/04/07 18:14:38;;;;;;;7.78;2.20;;;;;;;;;;5080485;28;20024;-78
2021/04/07 18:17:05;;;;;;;4.47;2.00;;;;;;;;;;5081098;28;20028;-79
2021/04/07 18:19:31;;;;;;;6.93;2.33;;;;;;;;;;5079143;28;20025;-82
2021/04/07 18:21:57;;;;;;;6.97;1.95;;;;;;;;;;5080397;28;20035;-79
2021/04/07 18:24:23;;;;;;;7.95;2.10;;;;;;;;;;5063286;28;20025;-80
2021/04/07 18:26:49;;;;;;;10.13;1.83;;;;;;;;;;5081698;28;20039;-79
2021/04/07 18:29:15;;;;;;;3.83;2.13;;;;;;;;;;5080058;28;20055;-80
2021/04/07 18:31:42;;;;;;;4.00;1.60;;;;;;;;;;5082103;28;20040;-80
2021/04/07 18:34:08;;;;;;;4.55;1.65;;;;;;;;;;5082489;28;20037;-80
2021/04/07 18:36:34;;;;;;;4.03;2.00;;;;;;;;;;5081922;28;20084;-80
2021/04/07 18:39:00;;;;;;;4.72;1.75;;;;;;;;;;5085882;28;20029;-79
2021/04/07 18:41:26;;;;;;;6.00;2.08;;;;;;;;;;5066140;28;20037;-78
2021/04/07 18:43:52;;;;;;;6.95;1.80;;;;;;;;;;5104826;28;20005;-78
2021/04/07 18:46:18;;;;;;;5.18;2.15;;;;;;;;;;5080807;28;20036;-77
2021/04/07 18:48:44;;;;;;;6.35;1.85;;;;;;;;;;5101451;28;20031;-78
2021/04/07 18:51:10;;;;;;;6.20;1.85;;;;;;;;;;5081682;28;20379;-78
2021/04/07 18:53:36;;;;;;;3.00;1.60;;;;;;;;;;5079103;28;20039;-78
2021/04/07 18:56:03;;;;;;;7.00;2.55;;;;;;;;;;5081116;28;20021;-78
